Akune, Japan

10:05 AM JST on January 27, 2015 (GMT +0900)
Kagoshima | Change Station
CLOSE
Current Station
Airport
Location: Kagoshima Airport,
Elevation: 902 ft
Nearby Weather Stations

Elev 902 ft 31.80 °N, 130.72 °E | Updated 5 minutes ago

Partly Cloudy
Partly Cloudy
52 °F
Feels Like 52 °F
N
7
Wind Variable Wind from North

Today
High -- | Low -- °F
--% Chance of Precip.
Yesterday
High -- | Low -- °F
Precip. -- in
7:16 AM 5:47 PM
Waxing Crescent, 48% visible
Pressure 30.06 in
Visibility 6.2 miles
Clouds Few 1500 ft
Dew Point 45 °F
Humidity 76%
Rainfall 0.00 in
Snow Depth Not available.
UV 3 out of 12
Pollen Not available.
Air Quality Not available.
Flu Activity Not available.
METAR RJFK 270100Z 35006KT 310V020 9999 FEW015 11/07 Q1018

More Conditions Fewer Conditions

Pressure 30.06 in
Visibility 6.2 miles
Clouds Few 1500 ft
Dew Point 45 °F
Humidity 76%
Rainfall 0.00 in
Snow Depth Not available.
UV 3 out of 12
Pollen Not available.
Air Quality Not available.
Flu Activity Not available.
METAR RJFK 270100Z 35006KT 310V020 9999 FEW015 11/07 Q1018

More Conditions Fewer Conditions

10-Day Weather Forecast

Almanac

Astronomy

Jan. 27, 2015 Rise Set
Actual Time
Civil Twilight
Nautical Twilight
Astronomical Twilight
Moon
Length of Visible Light
Length of Day
Tomorrow will be .
, % of the Moon is Illuminated

Today's Extremes

Country Highs Country Lows

Community

WunderPhotos

Upload Photos

1,790,441 photos uploaded!

WunderBlogs® & News

Nearby

Air Quality

  Air Quality AQ Index Pollutant
Not available.

Snow Depth

Station Depth Elevation

Earthquake Activity

City Distance Mag. Time & Date
Minimum magnitude displayed is 2.5.

Coastal Water Temperatures

Place Temperature

Nearby Weather Stations